Time;durP1;ratioP1;P1;durP2;ratioP2;P2;SDS_P1;SDS_P2;PMS_P1;PMS_P2;Temp;Humidity;BMP_temperature;BMP_pressure;BME280_temperature;BME280_humidity;BME280_pressure;Samples;Min_cycle;Max_cycle;Signal;HPM_P1;HPM_P2
2022/01/22 00:01:51;;;;;;;14.30;4.55;;;;;;;5.03;100.00;103262.53;4861407;29;20102;-48
2022/01/22 00:04:19;;;;;;;14.10;4.70;;;;;;;5.03;100.00;103273.34;4862354;29;20045;-46
2022/01/22 00:06:47;;;;;;;14.80;4.45;;;;;;;5.04;100.00;103274.16;4862433;29;20423;-49
2022/01/22 00:09:38;;;;;;;13.88;4.68;;;;;;;5.03;100.00;103275.19;4862060;29;20041;-47
2022/01/22 00:12:11;;;;;;;14.88;4.68;;;;;;;5.02;100.00;103270.78;4861885;29;20053;-47
2022/01/22 00:14:39;;;;;;;13.65;4.45;;;;;;;5.01;100.00;103269.94;4861975;29;20050;-47
2022/01/22 00:17:06;;;;;;;16.58;4.57;;;;;;;5.02;100.00;103266.22;4861849;29;20420;-49
2022/01/22 00:19:34;;;;;;;13.18;4.22;;;;;;;5.02;100.00;103259.97;4861823;29;20465;-50
2022/01/22 00:22:03;;;;;;;13.85;4.22;;;;;;;5.02;100.00;103251.88;4861509;29;20044;-48
2022/01/22 00:24:37;;;;;;;13.77;4.13;;;;;;;5.02;100.00;103250.00;4862672;29;20056;-47
2022/01/22 00:27:06;;;;;;;17.88;4.70;;;;;;;5.02;100.00;103254.56;4845190;29;20049;-47
2022/01/22 00:29:33;;;;;;;11.43;4.55;;;;;;;5.01;100.00;103253.75;4861311;29;20045;-48
2022/01/22 00:32:02;;;;;;;11.90;4.00;;;;;;;5.00;100.00;103257.44;4844641;29;20420;-47
2022/01/22 00:34:29;;;;;;;12.75;4.30;;;;;;;4.99;100.00;103255.75;4861472;29;20060;-48
2022/01/22 00:36:57;;;;;;;12.75;4.90;;;;;;;5.01;100.00;103255.59;4861491;29;20052;-46
2022/01/22 00:39:25;;;;;;;12.25;4.20;;;;;;;5.02;100.00;103255.41;4861482;29;20396;-48
2022/01/22 00:41:52;;;;;;;15.63;4.50;;;;;;;5.01;100.00;103248.34;4861781;29;20057;-46
2022/01/22 00:44:20;;;;;;;13.73;4.43;;;;;;;5.03;100.00;103232.81;4861216;29;20437;-47
2022/01/22 00:46:48;;;;;;;14.15;4.47;;;;;;;5.03;100.00;103242.78;4844802;29;20152;-49
2022/01/22 00:49:15;;;;;;;13.05;4.07;;;;;;;5.04;100.00;103241.75;4861176;29;20045;-48
2022/01/22 00:51:43;;;;;;;12.60;4.07;;;;;;;5.06;100.00;103243.25;4860704;29;20052;-44
2022/01/22 00:54:10;;;;;;;14.52;4.25;;;;;;;5.05;100.00;103255.09;4844440;29;20045;-47
2022/01/22 00:56:38;;;;;;;12.07;4.47;;;;;;;5.05;100.00;103247.00;4860845;29;20404;-47
2022/01/22 00:59:05;;;;;;;14.45;4.38;;;;;;;5.06;100.00;103255.94;4860913;29;20039;-47
2022/01/22 01:01:33;;;;;;;11.98;4.05;;;;;;;5.07;100.00;103258.44;4861070;29;20086;-48
2022/01/22 01:04:02;;;;;;;14.23;4.78;;;;;;;5.04;100.00;103256.09;4844496;29;20231;-46
2022/01/22 01:06:30;;;;;;;14.13;3.90;;;;;;;5.03;100.00;103257.13;4861347;29;20074;-46
2022/01/22 01:09:00;;;;;;;14.48;4.20;;;;;;;5.04;100.00;103268.75;4844537;29;20053;-45
2022/01/22 01:11:31;;;;;;;13.45;3.83;;;;;;;5.05;100.00;103260.50;4844137;29;20057;-47
2022/01/22 01:14:02;;;;;;;12.55;4.40;;;;;;;5.05;100.00;103255.09;4829410;29;20057;-47
2022/01/22 01:33:06;;;;;;;13.45;4.18;;;;;;;5.09;100.00;103261.81;4860622;29;20049;-47
2022/01/22 01:35:37;;;;;;;11.02;3.88;;;;;;;5.09;100.00;103260.97;4844084;29;20045;-47
2022/01/22 01:38:07;;;;;;;12.68;4.07;;;;;;;5.09;100.00;103263.69;4844398;29;20046;-47
2022/01/22 01:40:39;;;;;;;13.43;4.07;;;;;;;5.09;100.00;103267.22;4844445;29;20493;-46
2022/01/22 01:43:14;;;;;;;13.05;3.88;;;;;;;5.07;100.00;103274.66;4843760;29;20397;-45
2022/01/22 01:45:43;;;;;;;14.48;4.45;;;;;;;5.08;100.00;103275.53;4843611;29;20101;-49
2022/01/22 01:48:17;;;;;;;12.65;4.45;;;;;;;5.07;100.00;103277.34;4844366;29;20045;-48
2022/01/22 01:50:45;;;;;;;11.43;3.88;;;;;;;5.07;100.00;103263.84;4844373;29;20069;-50
2022/01/22 01:53:30;;;;;;;12.25;3.92;;;;;;;5.07;100.00;103266.53;4843324;29;20045;-48
2022/01/22 01:58:31;;;;;;;14.45;4.78;;;;;;;5.06;100.00;103264.03;4844170;29;20077;-49
2022/01/22 02:01:00;;;;;;;12.80;4.25;;;;;;;5.05;100.00;103252.41;4843872;29;20058;-45
2022/01/22 02:03:29;;;;;;;15.43;4.70;;;;;;;5.04;100.00;103258.78;4843791;29;20105;-49
2022/01/22 02:06:12;;;;;;;15.43;4.80;;;;;;;5.04;100.00;103253.38;4843679;29;20140;-46
2022/01/22 02:08:40;;;;;;;11.70;4.55;;;;;;;5.03;100.00;103254.41;4842031;29;20535;-47
2022/01/22 02:11:17;;;;;;;11.52;4.68;;;;;;;5.03;100.00;103259.81;4828067;29;20042;-45
2022/01/22 02:25:55;;;;;;;12.48;4.13;;;;;;;5.03;100.00;103251.72;4847388;29;20018;-49
2022/01/22 02:28:24;;;;;;;11.82;4.50;;;;;;;5.02;100.00;103252.72;4847254;29;20111;-47
2022/01/22 02:30:59;;;;;;;13.38;4.53;;;;;;;5.02;100.00;103255.41;4847078;29;20220;-47
2022/01/22 02:33:55;;;;;;;13.07;4.70;;;;;;;5.03;100.00;103245.47;4847347;29;20077;-47
2022/01/22 02:36:31;;;;;;;14.35;5.10;;;;;;;5.03;100.00;103258.97;4833981;29;20054;-46
2022/01/22 02:39:06;;;;;;;15.40;5.05;;;;;;;5.01;100.00;103253.75;4832464;29;20055;-47
2022/01/22 02:41:41;;;;;;;14.18;5.43;;;;;;;5.00;100.00;103251.19;4847585;29;20453;-47
2022/01/22 02:44:11;;;;;;;15.82;4.68;;;;;;;4.99;100.00;103250.34;4846741;29;20128;-47
2022/01/22 02:46:42;;;;;;;12.55;4.70;;;;;;;4.99;100.00;103250.34;4863759;29;20053;-47
2022/01/22 02:49:10;;;;;;;12.05;4.80;;;;;;;5.02;100.00;103259.97;4846684;29;20073;-48
2022/01/22 02:51:39;;;;;;;14.95;5.00;;;;;;;5.03;100.00;103253.59;4847008;29;20415;-47
2022/01/22 02:54:06;;;;;;;14.63;4.90;;;;;;;5.03;100.00;103246.31;4846983;29;20393;-47
2022/01/22 02:56:35;;;;;;;12.82;4.45;;;;;;;5.04;100.00;103253.38;4846868;29;20053;-48
2022/01/22 02:59:05;;;;;;;14.32;4.82;;;;;;;5.04;100.00;103250.69;4846545;29;20157;-47
2022/01/22 03:01:33;;;;;;;10.80;4.53;;;;;;;5.04;100.00;103261.50;4862597;29;20054;-47
2022/01/22 03:04:01;;;;;;;14.52;4.45;;;;;;;5.03;100.00;103262.53;4846615;29;20144;-47
2022/01/22 03:06:28;;;;;;;17.50;5.15;;;;;;;5.06;100.00;103262.16;4847123;29;20057;-46
2022/01/22 03:08:56;;;;;;;10.95;4.70;;;;;;;5.07;100.00;103269.25;4862787;29;20703;-46
2022/01/22 03:11:29;;;;;;;13.77;4.85;;;;;;;5.07;100.00;103263.84;4846430;29;20125;-48
2022/01/22 03:14:36;;;;;;;12.15;4.80;;;;;;;5.08;100.00;103264.72;4863207;29;20054;-47
2022/01/22 03:19:29;;;;;;;17.30;5.28;;;;;;;5.06;100.00;103248.66;4843872;29;20053;-45
2022/01/22 03:22:12;;;;;;;16.80;5.93;;;;;;;5.06;100.00;103256.78;4843261;29;20474;-46
2022/01/22 03:27:30;;;;;;;15.43;5.45;;;;;;;5.08;100.00;103262.84;4843597;29;20054;-50
2022/01/22 03:29:59;;;;;;;14.32;5.68;;;;;;;5.06;100.00;103255.94;4839882;29;20050;-49
2022/01/22 03:32:31;;;;;;;12.20;5.28;;;;;;;5.07;100.00;103258.44;4846466;29;20052;-47
2022/01/22 03:35:09;;;;;;;17.08;5.28;;;;;;;5.08;100.00;103260.16;4846544;29;20535;-43
2022/01/22 03:37:38;;;;;;;14.73;5.63;;;;;;;5.09;100.00;103260.97;4845865;29;20136;-48
2022/01/22 03:40:09;;;;;;;13.05;5.03;;;;;;;5.11;100.00;103253.56;4846049;29;20125;-47
2022/01/22 03:42:37;;;;;;;14.32;5.35;;;;;;;5.11;100.00;103259.78;4846242;29;20155;-48
2022/01/22 03:45:09;;;;;;;15.32;5.28;;;;;;;5.10;100.00;103263.53;4846018;29;20049;-47
2022/01/22 03:47:40;;;;;;;14.82;5.35;;;;;;;5.11;100.00;103269.78;4831440;29;20057;-47
2022/01/22 03:50:09;;;;;;;15.75;5.47;;;;;;;5.12;100.00;103269.59;4845638;29;20151;-46
2022/01/22 03:52:37;;;;;;;13.95;5.53;;;;;;;5.13;100.00;103263.19;4830131;29;20066;-47
2022/01/22 03:55:10;;;;;;;16.17;5.53;;;;;;;5.15;100.00;103270.25;4845815;29;20046;-45
2022/01/22 03:58:07;;;;;;;13.23;5.25;;;;;;;5.15;100.00;103270.25;4787076;30;20107;-45
2022/01/22 04:00:37;;;;;;;15.77;5.57;;;;;;;5.15;100.00;103270.25;4785720;30;20083;-46
2022/01/22 04:05:44;;;;;;;14.38;5.63;;;;;;;5.15;100.00;103267.56;4785823;30;20043;-47
2022/01/22 04:08:16;;;;;;;15.50;6.22;;;;;;;5.15;100.00;103256.75;4785742;30;20066;-47
2022/01/22 04:10:43;;;;;;;19.00;6.85;;;;;;;5.17;100.00;103254.72;4787229;30;20536;-48
2022/01/22 04:13:14;;;;;;;11.73;5.22;;;;;;;5.16;100.00;103262.00;4786588;30;20074;-47
2022/01/22 04:15:46;;;;;;;14.02;6.07;;;;;;;5.16;100.00;103261.16;4785647;30;20089;-48
2022/01/22 04:29:03;;;;;;;14.52;6.55;;;;;;;5.21;100.00;103267.72;4787549;30;20113;-44
2022/01/22 04:31:31;;;;;;;11.52;6.10;;;;;;;5.21;100.00;103267.72;4785351;29;20047;-43
2022/01/22 04:33:59;;;;;;;13.88;5.85;;;;;;;5.21;100.00;103261.47;4800997;29;20137;-42
2022/01/22 04:36:27;;;;;;;10.32;5.63;;;;;;;5.23;100.00;103270.25;4846292;29;20049;-42
2022/01/22 04:38:55;;;;;;;12.35;6.22;;;;;;;5.23;100.00;103262.16;4861630;29;20053;-43
2022/01/22 04:41:22;;;;;;;14.20;6.53;;;;;;;5.24;100.00;103266.53;4861713;29;20045;-44
2022/01/22 04:43:56;;;;;;;14.95;6.63;;;;;;;5.25;100.00;103268.22;4861506;29;20052;-44
2022/01/22 04:46:47;;;;;;;15.32;6.47;;;;;;;5.24;100.00;103264.69;4845212;29;20056;-47
2022/01/22 04:55:00;;;;;;;18.17;7.00;;;;;;;5.24;100.00;103270.09;4848002;29;20053;-46
2022/01/22 04:57:36;;;;;;;12.63;6.32;;;;;;;5.26;100.00;103269.91;4844833;29;20049;-46
2022/01/22 05:00:16;;;;;;;17.75;7.25;;;;;;;5.27;100.00;103274.31;4836895;29;20054;-48
2022/01/22 05:03:03;;;;;;;15.35;6.60;;;;;;;5.27;100.00;103282.41;4861212;29;20045;-48
2022/01/22 05:05:40;;;;;;;15.07;6.63;;;;;;;5.29;100.00;103269.56;4861003;29;20052;-48
2022/01/22 05:08:43;;;;;;;15.82;7.65;;;;;;;5.29;100.00;103264.16;4784082;30;20122;-45
2022/01/22 05:11:18;;;;;;;16.63;7.63;;;;;;;5.29;100.00;103264.16;4786284;30;20062;-48
2022/01/22 05:13:47;;;;;;;16.52;8.10;;;;;;;5.29;100.00;103258.75;4786120;30;20138;-48
2022/01/22 05:16:15;;;;;;;12.02;6.93;;;;;;;5.27;100.00;103247.28;4786234;30;20067;-45
2022/01/22 05:19:00;;;;;;;15.65;7.13;;;;;;;5.28;100.00;103248.97;4769896;30;20526;-47
2022/01/22 05:21:34;;;;;;;12.52;7.50;;;;;;;5.28;100.00;103248.97;4785800;30;20522;-48
2022/01/22 05:24:07;;;;;;;14.13;7.95;;;;;;;5.28;100.00;103249.78;4785960;30;20070;-48
2022/01/22 05:37:53;;;;;;;18.30;8.93;;;;;;;5.29;100.00;103248.78;4785834;30;20058;-50
2022/01/22 05:40:21;;;;;;;17.17;9.07;;;;;;;5.30;100.00;103246.94;4783403;30;20050;-49
2022/01/22 05:42:49;;;;;;;17.30;9.00;;;;;;;5.29;100.00;103248.78;4799491;29;20573;-50
2022/01/22 05:45:18;;;;;;;17.92;8.95;;;;;;;5.29;100.00;103250.63;4842491;29;20052;-49
2022/01/22 05:47:45;;;;;;;18.25;8.63;;;;;;;5.29;100.00;103242.53;4825753;29;20124;-50
2022/01/22 05:50:26;;;;;;;16.88;8.40;;;;;;;5.30;100.00;103241.53;4852539;29;20033;-46
2022/01/22 05:52:59;;;;;;;22.50;9.25;;;;;;;5.30;100.00;103255.03;4843334;29;20141;-48
2022/01/22 06:00:52;;;;;;;15.20;8.88;;;;;;;5.29;100.00;103262.31;4844247;29;20042;-48
2022/01/22 06:03:43;;;;;;;18.77;9.18;;;;;;;5.31;100.00;103264.81;4858697;29;20058;-48
2022/01/22 06:06:11;;;;;;;18.63;10.20;;;;;;;5.28;100.00;103267.88;4843843;29;20049;-48
2022/01/22 06:08:45;;;;;;;21.83;11.07;;;;;;;5.26;100.00;103261.78;4843711;29;20097;-47
2022/01/22 06:11:21;;;;;;;16.20;10.38;;;;;;;5.22;100.00;103260.44;4859475;29;20451;-48
2022/01/22 06:13:49;;;;;;;26.95;12.70;;;;;;;5.20;100.00;103265.22;4843994;29;20109;-45
2022/01/22 06:16:27;;;;;;;22.17;11.57;;;;;;;5.18;100.00;103264.53;4859303;29;20080;-44
2022/01/22 06:19:31;;;;;;;23.13;11.85;;;;;;;5.19;100.00;103255.38;4840784;29;20049;-46
2022/01/22 06:21:59;;;;;;;22.30;10.95;;;;;;;5.20;100.00;103257.09;4827513;29;20069;-47
2022/01/22 06:24:27;;;;;;;19.67;10.88;;;;;;;5.21;100.00;103254.19;4843987;29;20049;-46
2022/01/22 06:27:00;;;;;;;16.63;9.90;;;;;;;5.23;100.00;103262.16;4843720;29;20404;-46
2022/01/22 06:29:28;;;;;;;23.33;12.07;;;;;;;5.25;100.00;103262.81;4859938;29;20065;-46
2022/01/22 06:31:55;;;;;;;18.95;10.93;;;;;;;5.25;100.00;103274.47;4859573;29;20046;-45
2022/01/22 06:34:23;;;;;;;20.90;11.48;;;;;;;5.26;100.00;103272.59;4843885;29;20056;-48
2022/01/22 06:36:51;;;;;;;16.80;10.45;;;;;;;5.30;100.00;103276.66;4843634;29;20615;-48
2022/01/22 06:39:21;;;;;;;21.30;11.95;;;;;;;5.30;100.00;103272.09;4843501;29;20061;-48
2022/01/22 06:42:09;;;;;;;18.67;11.32;;;;;;;5.28;100.00;103281.41;4849141;29;20077;-45
2022/01/22 06:44:52;;;;;;;20.33;11.02;;;;;;;5.27;100.00;103279.72;4843695;29;20042;-44
2022/01/22 06:47:30;;;;;;;21.85;11.35;;;;;;;5.26;100.00;103276.16;4860321;29;20041;-43
2022/01/22 06:49:58;;;;;;;27.35;11.45;;;;;;;5.26;100.00;103278.00;4859914;29;20071;-44
2022/01/22 06:52:44;;;;;;;21.95;11.45;;;;;;;5.27;100.00;103285.13;4827456;29;20058;-46
2022/01/22 06:56:01;;;;;;;24.40;11.38;;;;;;;5.28;100.00;103286.81;4844737;29;20045;-45
2022/01/22 06:58:19;;;;;;;20.50;10.48;;;;;;;5.29;100.00;103293.88;4845138;29;20073;-46
2022/01/22 07:00:52;;;;;;;19.33;11.07;;;;;;;5.29;100.00;103289.34;4846348;29;20419;-46
2022/01/22 07:03:23;;;;;;;22.23;10.88;;;;;;;5.30;100.00;103292.88;4861628;29;20050;-44
2022/01/22 07:06:10;;;;;;;20.55;11.10;;;;;;;5.30;100.00;103292.88;4861972;29;20090;-44
2022/01/22 07:08:38;;;;;;;21.25;10.75;;;;;;;5.30;100.00;103295.59;4846545;29;20560;-47
2022/01/22 07:11:08;;;;;;;18.95;10.25;;;;;;;5.32;100.00;103298.97;4846492;29;20134;-48
2022/01/22 07:13:40;;;;;;;21.10;10.95;;;;;;;5.32;100.00;103299.81;4858837;29;20109;-48
2022/01/22 07:16:08;;;;;;;17.55;9.30;;;;;;;5.35;100.00;103301.31;4846224;29;20061;-46
2022/01/22 07:18:37;;;;;;;18.50;9.10;;;;;;;5.37;100.00;103311.97;4846042;29;20050;-47
2022/01/22 07:21:19;;;;;;;17.40;9.15;;;;;;;5.38;100.00;103316.34;4846165;29;20113;-47
2022/01/22 07:26:23;;;;;;;17.85;8.80;;;;;;;5.37;100.00;103314.69;4846373;29;20118;-47
2022/01/22 07:28:58;;;;;;;15.82;7.38;;;;;;;5.36;100.00;103315.66;4845791;29;20523;-47
2022/01/22 07:31:27;;;;;;;17.92;7.75;;;;;;;5.36;100.00;103313.81;4830662;29;20060;-48
2022/01/22 07:34:00;;;;;;;16.65;7.55;;;;;;;5.38;100.00;103319.88;4845729;29;20544;-49
2022/01/22 07:36:28;;;;;;;15.32;7.35;;;;;;;5.39;100.00;103328.84;4845069;29;20385;-53
2022/01/22 07:38:56;;;;;;;18.08;7.35;;;;;;;5.41;100.00;103332.22;4845147;29;20437;-47
2022/01/22 07:41:24;;;;;;;15.27;6.85;;;;;;;5.43;100.00;103325.63;4845779;29;20077;-44
2022/01/22 07:44:10;;;;;;;;;;;;;;;5.44;100.00;103335.44;4862013;29;20563;-48
2022/01/22 07:46:45;;;;;;;16.00;8.32;;;;;;;5.47;100.00;103331.53;4845745;29;20379;-48
2022/01/22 07:49:24;;;;;;;17.13;7.50;;;;;;;5.48;100.00;103331.38;4845602;29;20064;-42
2022/01/22 07:51:55;;;;;;;19.73;6.72;;;;;;;5.49;100.00;103330.34;4845233;29;20568;-48
2022/01/22 07:54:24;;;;;;;20.02;6.90;;;;;;;5.50;100.00;103321.22;4861711;29;20132;-46
2022/01/22 07:56:55;;;;;;;16.17;6.63;;;;;;;5.54;100.00;103324.44;4845606;29;20077;-45
2022/01/22 07:59:22;;;;;;;15.82;6.28;;;;;;;5.55;100.00;103332.34;4845579;29;20084;-45
2022/01/22 08:01:52;;;;;;;13.35;6.28;;;;;;;5.55;100.00;103320.69;4861964;29;20060;-45
2022/01/22 08:04:24;;;;;;;13.90;6.95;;;;;;;5.55;100.00;103326.09;4861033;29;20038;-43
2022/01/22 08:07:10;;;;;;;12.20;6.05;;;;;;;5.54;100.00;103319.84;4853342;29;20079;-43
2022/01/22 08:09:57;;;;;;;17.08;6.20;;;;;;;5.59;100.00;103315.81;4862200;29;20085;-45
2022/01/22 08:12:25;;;;;;;17.83;6.97;;;;;;;5.60;100.00;103317.47;4861981;29;20049;-43
2022/01/22 08:15:06;;;;;;;14.50;6.38;;;;;;;5.60;100.00;103315.59;4845209;29;20053;-48
2022/01/22 08:17:34;;;;;;;17.60;7.60;;;;;;;5.61;100.00;103322.72;4845407;29;20052;-48
2022/01/22 08:20:03;;;;;;;19.88;6.45;;;;;;;5.61;100.00;103320.03;4845186;29;20060;-47
2022/01/22 08:22:50;;;;;;;15.32;6.70;;;;;;;5.63;100.00;103322.53;4861481;29;20049;-47
2022/01/22 08:25:38;;;;;;;14.88;6.90;;;;;;;5.66;100.00;103327.63;4860054;29;20045;-46
2022/01/22 08:31:15;;;;;;;15.32;7.45;;;;;;;5.66;100.00;103322.22;4861045;29;20097;-47
2022/01/22 08:36:29;;;;;;;12.02;7.20;;;;;;;5.66;100.00;103328.44;4847396;29;20489;-46
2022/01/22 08:38:57;;;;;;;15.95;8.13;;;;;;;5.67;100.00;103321.19;4844307;29;20508;-47
2022/01/22 08:41:27;;;;;;;15.63;8.02;;;;;;;5.66;100.00;103317.63;4844100;29;20049;-45
2022/01/22 08:43:54;;;;;;;14.88;8.25;;;;;;;5.67;100.00;103329.28;4844378;29;20098;-44
2022/01/22 08:46:22;;;;;;;21.00;8.75;;;;;;;5.66;100.00;103325.75;4861336;29;20049;-48
2022/01/22 08:48:50;;;;;;;16.73;8.52;;;;;;;5.67;100.00;103329.28;4844019;29;20505;-48
2022/01/22 08:51:18;;;;;;;21.38;9.25;;;;;;;5.68;100.00;103345.34;4844334;29;20045;-45
2022/01/22 08:53:50;;;;;;;17.33;8.45;;;;;;;5.67;100.00;103346.34;4843644;29;20394;-49
2022/01/22 08:56:19;;;;;;;15.00;7.95;;;;;;;5.68;100.00;103353.47;4844497;29;20060;-48
2022/01/22 08:58:47;;;;;;;23.45;9.32;;;;;;;5.70;100.00;103355.97;4843919;29;20053;-47
2022/01/22 09:01:29;;;;;;;21.35;9.02;;;;;;;5.70;100.00;103359.56;4860968;29;20136;-47
2022/01/22 09:04:02;;;;;;;15.85;8.00;;;;;;;5.72;100.00;103351.25;4829638;29;20072;-48
2022/01/22 09:06:39;;;;;;;16.83;9.05;;;;;;;5.73;100.00;103364.63;4826427;29;20049;-48
2022/01/22 09:09:32;;;;;;;16.45;8.60;;;;;;;5.77;100.00;103359.69;4838744;29;20048;-47
2022/01/22 09:12:06;;;;;;;17.08;8.88;;;;;;;5.79;100.00;103362.22;4844294;29;20049;-47
2022/01/22 09:14:49;;;;;;;15.65;8.57;;;;;;;5.80;100.00;103358.50;4844274;29;20046;-48
2022/01/22 09:17:17;;;;;;;16.58;8.00;;;;;;;5.81;100.00;103357.50;4825556;29;20057;-48
2022/01/22 09:19:47;;;;;;;18.75;8.50;;;;;;;5.81;100.00;103358.34;4834937;29;20102;-46
2022/01/22 09:22:18;;;;;;;20.00;8.25;;;;;;;5.82;100.00;103353.75;4843950;29;20053;-47
2022/01/22 09:24:51;;;;;;;16.90;7.88;;;;;;;5.84;100.00;103357.13;4844067;29;20080;-48
2022/01/22 09:27:19;;;;;;;18.40;8.02;;;;;;;5.84;100.00;103363.38;4844057;29;20093;-48
2022/01/22 09:29:48;;;;;;;22.83;9.32;;;;;;;5.86;100.00;103364.06;4843814;29;20042;-48
2022/01/22 09:32:15;;;;;;;13.88;8.13;;;;;;;5.86;100.00;103364.06;4843535;29;20071;-47
2022/01/22 09:35:17;;;;;;;17.17;8.07;;;;;;;5.87;100.00;103368.47;4843952;29;20500;-45
2022/01/22 09:37:58;;;;;;;19.58;7.53;;;;;;;5.88;100.00;103375.56;4843512;29;20098;-48
2022/01/22 09:40:36;;;;;;;16.90;7.47;;;;;;;5.88;100.00;103380.97;4860430;29;20471;-48
2022/01/22 09:43:23;;;;;;;16.20;8.27;;;;;;;5.90;100.00;103381.66;4860346;29;20041;-48
2022/01/22 09:46:17;;;;;;;15.90;7.60;;;;;;;5.91;100.00;103380.63;4838771;29;20072;-50
2022/01/22 09:49:07;;;;;;;17.55;7.47;;;;;;;5.94;100.00;103382.16;4836370;29;20050;-45
2022/01/22 09:51:53;;;;;;;;;;;;;;;5.93;100.00;103389.41;4852832;29;20062;-42
2022/01/22 09:54:50;;;;;;;15.95;6.78;;;;;;;5.94;100.00;103391.16;4785250;30;19948;-49
2022/01/22 09:57:37;;;;;;;;;;;;;;;5.96;100.00;103388.25;4785491;30;20048;-46
2022/01/22 10:00:25;;;;;;;15.77;6.75;;;;;;;5.95;100.00;103387.41;4770592;30;20024;-47
2022/01/22 10:02:58;;;;;;;13.43;6.13;;;;;;;5.96;100.00;103391.81;4784897;30;20116;-50
2022/01/22 10:05:52;;;;;;;19.50;7.03;;;;;;;5.97;100.00;103385.38;4784252;30;20047;-49
2022/01/22 10:08:39;;;;;;;18.17;6.75;;;;;;;5.99;100.00;103385.22;4785055;30;20510;-48
2022/01/22 10:11:42;;;;;;;13.73;6.20;;;;;;;5.99;100.00;103387.91;4732110;30;20049;-49
2022/01/22 10:14:10;;;;;;;18.75;6.53;;;;;;;6.01;100.00;103390.44;4731824;30;20049;-50
2022/01/22 10:16:39;;;;;;;11.02;5.40;;;;;;;6.01;100.00;103391.28;4732007;30;20060;-46
2022/01/22 10:19:18;;;;;;;15.88;6.63;;;;;;;5.97;100.00;103388.09;4732118;30;20057;-50
2022/01/22 10:21:46;;;;;;;13.60;5.97;;;;;;;5.97;100.00;103400.78;4733060;30;20068;-48
2022/01/22 10:24:37;;;;;;;15.30;5.35;;;;;;;5.96;100.00;103399.06;4732855;30;20143;-49
2022/01/22 10:27:11;;;;;;;18.08;6.57;;;;;;;5.97;100.00;103396.19;4731715;30;20056;-50
2022/01/22 10:29:48;;;;;;;13.05;5.70;;;;;;;5.98;100.00;103397.88;4734517;30;20052;-50
2022/01/22 10:32:31;;;;;;;14.60;6.03;;;;;;;5.99;100.00;103393.34;4751076;30;20088;-50
2022/01/22 10:35:29;;;;;;;19.58;7.10;;;;;;;6.00;100.00;103395.00;4733086;30;20480;-44
2022/01/22 10:38:50;;;;;;;15.35;6.32;;;;;;;6.01;100.00;103396.69;4724869;30;20105;-51
2022/01/22 10:41:32;;;;;;;15.13;6.22;;;;;;;6.04;100.00;103395.50;4735448;30;20087;-49
2022/01/22 10:44:01;;;;;;;13.80;6.32;;;;;;;6.05;100.00;103397.19;4733881;30;20567;-49
2022/01/22 10:49:10;;;;;;;13.63;5.28;;;;;;;6.04;100.00;103400.91;4755759;30;20047;-46
2022/01/22 10:51:49;;;;;;;12.63;5.10;;;;;;;6.04;100.00;103400.91;4770171;30;20423;-48
2022/01/22 10:54:22;;;;;;;16.48;5.40;;;;;;;6.04;100.00;103401.78;4768939;30;20068;-47
2022/01/22 10:56:51;;;;;;;12.77;5.03;;;;;;;6.06;100.00;103407.00;4769621;30;20051;-50
2022/01/22 10:59:21;;;;;;;12.43;5.45;;;;;;;6.09;100.00;103403.97;4770057;30;20078;-48
2022/01/22 11:01:59;;;;;;;10.98;4.60;;;;;;;6.09;100.00;103406.66;4770070;30;20044;-49
2022/01/22 11:04:28;;;;;;;13.02;5.22;;;;;;;6.10;100.00;103400.22;4769823;30;20503;-47
2022/01/22 11:07:07;;;;;;;17.48;5.85;;;;;;;6.09;100.00;103396.69;4769941;30;20547;-48
2022/01/22 11:09:55;;;;;;;13.95;5.60;;;;;;;6.10;100.00;103395.63;4769923;30;20462;-46
2022/01/22 11:12:23;;;;;;;15.88;5.30;;;;;;;6.11;100.00;103399.19;4817346;29;20060;-48
2022/01/22 11:14:51;;;;;;;12.77;4.90;;;;;;;6.11;100.00;103391.94;4862555;29;20042;-49
2022/01/22 11:17:19;;;;;;;14.80;5.15;;;;;;;6.13;100.00;103389.03;4862790;29;20500;-47
2022/01/22 11:19:49;;;;;;;12.40;5.07;;;;;;;6.13;100.00;103384.50;4830654;29;20057;-45
2022/01/22 11:22:19;;;;;;;11.98;4.80;;;;;;;6.13;100.00;103384.50;4862640;29;20053;-43
2022/01/22 11:24:47;;;;;;;14.77;5.57;;;;;;;6.13;100.00;103380.91;4862430;29;20530;-47
2022/01/22 11:27:20;;;;;;;16.10;5.65;;;;;;;6.14;100.00;103388.03;4863029;29;20481;-47
2022/01/22 11:29:54;;;;;;;11.93;5.78;;;;;;;6.13;100.00;103384.50;4862450;29;20050;-49
2022/01/22 11:32:31;;;;;;;17.02;6.03;;;;;;;6.15;100.00;103381.59;4846299;29;20053;-48
2022/01/22 11:35:04;;;;;;;13.82;5.55;;;;;;;6.15;100.00;103385.13;4846350;29;20053;-48
2022/01/22 11:37:52;;;;;;;14.13;5.30;;;;;;;6.16;100.00;103381.41;4862631;29;20057;-48
2022/01/22 11:40:22;;;;;;;16.17;5.47;;;;;;;6.15;100.00;103381.59;4844882;29;20037;-49
2022/01/22 11:43:12;;;;;;;15.25;5.50;;;;;;;6.16;100.00;103383.28;4862408;29;20049;-49
2022/01/22 11:45:50;;;;;;;14.50;6.15;;;;;;;6.17;100.00;103391.22;4859784;29;20049;-49
2022/01/22 11:48:29;;;;;;;14.70;5.90;;;;;;;6.18;100.00;103392.06;4861877;29;20045;-48
2022/01/22 11:51:21;;;;;;;17.10;6.63;;;;;;;6.18;100.00;103392.91;4844869;29;20049;-46
2022/01/22 11:54:01;;;;;;;15.40;6.07;;;;;;;6.22;100.00;103382.56;4845183;29;20058;-50
2022/01/22 11:56:30;;;;;;;18.63;6.97;;;;;;;6.24;100.00;103385.94;4862100;29;20413;-47
2022/01/22 11:59:01;;;;;;;15.85;6.45;;;;;;;6.22;100.00;103390.69;4845867;29;20054;-50
2022/01/22 12:01:56;;;;;;;18.10;7.05;;;;;;;6.23;100.00;103388.81;4860959;29;20046;-47
2022/01/22 12:04:45;;;;;;;13.55;6.18;;;;;;;6.23;100.00;103389.69;4845987;29;20428;-45
2022/01/22 12:07:15;;;;;;;13.27;6.28;;;;;;;6.25;100.00;103381.38;4862123;29;20098;-45
2022/01/22 12:10:18;;;;;;;15.55;6.70;;;;;;;6.26;100.00;103373.09;4862009;29;20048;-45
2022/01/22 12:15:22;;;;;;;15.75;6.97;;;;;;;6.27;100.00;103382.03;4829549;29;20393;-47
2022/01/22 12:17:51;;;;;;;13.05;5.85;;;;;;;6.26;100.00;103375.78;4860724;29;20049;-47
2022/01/22 12:23:31;;;;;;;17.48;6.15;;;;;;;6.28;100.00;103375.63;4859190;29;20139;-49
2022/01/22 12:26:00;;;;;;;12.15;5.85;;;;;;;6.28;100.00;103376.47;4841470;29;20049;-42
2022/01/22 12:28:39;;;;;;;14.82;6.22;;;;;;;6.31;100.00;103378.81;4876248;29;20388;-51
2022/01/22 12:31:15;;;;;;;17.02;6.20;;;;;;;6.31;100.00;103380.69;4870025;29;20146;-47
2022/01/22 12:33:53;;;;;;;14.88;5.88;;;;;;;6.31;100.00;103381.53;4857714;29;20049;-47
2022/01/22 12:36:26;;;;;;;14.77;5.73;;;;;;;6.32;100.00;103377.78;4870279;29;20050;-47
2022/01/22 12:39:11;;;;;;;13.88;5.85;;;;;;;6.31;100.00;103380.69;4845500;29;20290;-47
2022/01/22 12:44:23;;;;;;;16.30;6.75;;;;;;;6.32;100.00;103379.66;4849685;29;20045;-46
2022/01/22 12:46:52;;;;;;;13.77;6.03;;;;;;;6.31;100.00;103381.53;4861755;29;20053;-47
2022/01/22 12:49:21;;;;;;;15.02;6.70;;;;;;;6.29;100.00;103380.84;4861297;29;20417;-46
2022/01/22 12:51:59;;;;;;;15.32;6.90;;;;;;;6.29;100.00;103383.56;4860111;29;20046;-46
2022/01/22 12:54:36;;;;;;;14.90;6.28;;;;;;;6.30;100.00;103385.25;4860590;29;20500;-52
2022/01/22 12:57:19;;;;;;;16.27;6.55;;;;;;;6.34;100.00;103391.16;4861259;29;20045;-48
2022/01/22 13:00:08;;;;;;;16.27;6.30;;;;;;;6.35;100.00;103398.25;4861054;29;20133;-46
2022/01/22 13:02:45;;;;;;;18.63;7.30;;;;;;;6.35;100.00;103384.69;4860970;29;20088;-48
2022/01/22 13:05:15;;;;;;;13.20;6.20;;;;;;;6.32;100.00;103388.59;4860781;29;20051;-47
2022/01/22 13:08:01;;;;;;;20.00;7.15;;;;;;;6.30;100.00;103387.97;4861059;29;20064;-46
2022/01/22 13:11:04;;;;;;;15.65;6.57;;;;;;;6.30;100.00;103385.25;4775358;30;20082;-47
2022/01/22 13:13:39;;;;;;;17.38;6.70;;;;;;;6.30;100.00;103381.69;4785971;30;20132;-48
2022/01/22 13:16:12;;;;;;;16.60;6.50;;;;;;;6.30;100.00;103385.25;4768759;30;20051;-44
2022/01/22 13:18:46;;;;;;;14.50;6.93;;;;;;;6.30;100.00;103390.69;4768388;30;20047;-46
2022/01/22 13:21:16;;;;;;;14.32;6.75;;;;;;;6.30;100.00;103390.69;4768170;30;20055;-48
2022/01/22 13:23:46;;;;;;;19.23;7.70;;;;;;;6.31;100.00;103386.09;4753629;30;20052;-49